Curtis Field Brady US
ICAO: KBBD
IATA: BBD
Category: Medium
Scheduled Services: No

Elevation: 1827 ft
TransAlt. 18000 ft.

Airport Communications:
AWOS 3:118.375
HOUSTON CNTR:132.35
CTAF/UNICOM:122.8

KBBD Zoom In..

If you have problems with the map follow the link
https://www.worldairports.se/pages/airport.php?
ICAO=KBBD

Runways:

(A) RW 08 length 3520 ft width 110 ft
---- / hdg 86

(B) RW 17 length 4605 ft width 75 ft
---- / hdg 173

(C) RW 26 length 3520 ft width 110 ft
---- / hdg 266

(D) RW 35 length 4605 ft width 75 ft
---- / hdg 353

Location; KBBD
Day. 14 / Time. 10.55 Zulu
* Altimeter: 30.48
* Temperature: -05° c. -23°f.
* Wind from: 270° Speed 04 kn.
Dewpoint: -08° c.
Visibility: 10 Statute Miles.
Clouds: Clear (automated report).

KBBD 141055Z AUTO 27004KT 10SM CLR M05/M08 A3048 RMK AO2


Wind From 270°
Speed 04 kn.

 
 
jpsmedia.com for Web Design worldairports.se 2018   terms of use